TimeCDT,TemperatureF,Dew PointF,Humidity,Sea Level PressureIn,VisibilityMPH,Wind Direction,Wind SpeedMPH,Gust SpeedMPH,PrecipitationIn,Events,Conditions,WindDirDegrees,DateUTC
12:15 AM,55.6,47.8,75,30.07,10.0,South,4.6,-,N/A,,Clear,180,2013-10-10 05:15:00
12:35 AM,56.3,47.7,73,30.07,10.0,SSE,4.6,-,N/A,,Clear,160,2013-10-10 05:35:00
12:55 AM,55.2,47.3,75,30.07,10.0,SSE,4.6,-,N/A,,Clear,160,2013-10-10 05:55:00
1:15 AM,54.7,47.1,76,30.07,10.0,SSE,5.8,-,N/A,,Clear,160,2013-10-10 06:15:00
1:35 AM,53.6,46.9,78,30.07,10.0,SSE,4.6,-,N/A,,Clear,150,2013-10-10 06:35:00
1:55 AM,53.8,47.1,78,30.07,10.0,SSE,6.9,-,N/A,,Clear,160,2013-10-10 06:55:00
2:15 AM,53.8,47.3,79,30.07,10.0,SSE,6.9,-,N/A,,Clear,150,2013-10-10 07:15:00
2:35 AM,54.1,46.9,77,30.06,10.0,SSE,6.9,-,N/A,,Clear,150,2013-10-10 07:35:00
2:55 AM,53.1,46.8,79,30.06,10.0,SSE,5.8,-,N/A,,Clear,150,2013-10-10 07:55:00
3:15 AM,53.1,46.4,78,30.06,10.0,SSE,6.9,-,N/A,,Clear,150,2013-10-10 08:15:00
3:35 AM,52.7,46.4,79,30.06,10.0,SSE,6.9,-,N/A,,Clear,150,2013-10-10 08:35:00
3:55 AM,52.5,45.9,78,30.06,10.0,SSE,6.9,-,N/A,,Clear,150,2013-10-10 08:55:00
4:15 AM,52.0,45.7,79,30.06,10.0,SSE,6.9,-,N/A,,Clear,150,2013-10-10 09:15:00
4:35 AM,52.2,45.5,78,30.07,10.0,SSE,5.8,-,N/A,,Clear,150,2013-10-10 09:35:00
4:55 AM,52.2,45.1,77,30.06,10.0,SE,6.9,-,N/A,,Clear,140,2013-10-10 09:55:00
5:15 AM,51.8,45.0,77,30.06,10.0,SSE,6.9,-,N/A,,Clear,150,2013-10-10 10:15:00
5:35 AM,51.4,44.8,78,30.06,10.0,SSE,4.6,-,N/A,,Clear,150,2013-10-10 10:35:00
5:55 AM,50.4,44.6,81,30.06,10.0,SSE,5.8,-,N/A,,Clear,150,2013-10-10 10:55:00
6:15 AM,50.9,44.6,79,30.05,10.0,SSE,5.8,-,N/A,,Clear,150,2013-10-10 11:15:00
6:35 AM,50.9,44.2,78,30.05,10.0,SSE,5.8,-,N/A,,Clear,150,2013-10-10 11:35:00
6:55 AM,50.4,44.1,79,30.05,10.0,SSE,4.6,-,N/A,,Clear,150,2013-10-10 11:55:00
7:15 AM,50.5,44.4,80,30.05,10.0,SSE,6.9,-,N/A,,Clear,150,2013-10-10 12:15:00
7:35 AM,50.5,44.2,79,30.05,10.0,SSE,3.5,-,N/A,,Clear,150,2013-10-10 12:35:00
7:55 AM,50.5,44.2,79,30.05,10.0,SSE,5.8,-,N/A,,Clear,150,2013-10-10 12:55:00
8:15 AM,51.3,44.2,77,30.05,10.0,SSE,9.2,-,N/A,,Clear,150,2013-10-10 13:15:00
8:35 AM,51.8,44.6,76,30.05,10.0,SSE,8.1,-,N/A,,Clear,160,2013-10-10 13:35:00
8:55 AM,53.6,44.8,72,30.05,10.0,SSE,9.2,-,N/A,,Clear,160,2013-10-10 13:55:00
9:15 AM,54.9,45.0,69,30.04,10.0,SSE,11.5,-,N/A,,Clear,160,2013-10-10 14:15:00
9:35 AM,56.3,45.3,67,30.04,10.0,SSE,12.7,-,N/A,,Clear,160,2013-10-10 14:35:00
9:55 AM,58.6,45.5,62,30.04,10.0,SSE,10.4,-,N/A,,Clear,160,2013-10-10 14:55:00
10:15 AM,59.2,45.5,60,30.03,10.0,SSE,9.2,-,N/A,,Clear,160,2013-10-10 15:15:00
10:35 AM,61.5,45.9,56,30.03,10.0,SSE,10.4,-,N/A,,Clear,160,2013-10-10 15:35:00
10:55 AM,63.1,46.0,54,30.03,10.0,South,10.4,-,N/A,,Clear,170,2013-10-10 15:55:00
11:15 AM,64.0,46.0,52,30.02,10.0,South,12.7,-,N/A,,Clear,170,2013-10-10 16:15:00
11:35 AM,66.4,46.2,48,30.02,10.0,SSE,10.4,-,N/A,,Clear,160,2013-10-10 16:35:00
11:55 AM,67.3,45.7,46,30.01,10.0,South,11.5,-,N/A,,Clear,170,2013-10-10 16:55:00
12:15 PM,68.5,46.2,45,30.01,10.0,SSE,10.4,17.3,N/A,,Clear,160,2013-10-10 17:15:00
12:35 PM,70.3,46.6,43,30.00,10.0,South,9.2,-,N/A,,Clear,180,2013-10-10 17:35:00
12:55 PM,71.6,45.0,38,30.00,10.0,South,12.7,19.6,N/A,,Clear,180,2013-10-10 17:55:00
1:15 PM,72.5,45.3,38,29.99,10.0,South,11.5,-,N/A,,Clear,180,2013-10-10 18:15:00
1:35 PM,73.6,46.0,37,29.98,10.0,SSE,12.7,-,N/A,,Clear,160,2013-10-10 18:35:00
1:55 PM,73.6,45.0,36,29.98,10.0,SSE,15.0,20.7,N/A,,Clear,160,2013-10-10 18:55:00
2:15 PM,73.6,47.3,39,29.97,10.0,SE,11.5,16.1,N/A,,Clear,140,2013-10-10 19:15:00
2:35 PM,73.6,47.3,39,29.97,10.0,SSE,13.8,-,N/A,,Clear,160,2013-10-10 19:35:00
2:55 PM,73.4,46.0,38,29.97,10.0,South,12.7,17.3,N/A,,Clear,170,2013-10-10 19:55:00
3:15 PM,73.0,46.0,38,29.96,10.0,SSE,12.7,-,N/A,,Clear,150,2013-10-10 20:15:00
3:35 PM,73.0,45.7,38,29.96,10.0,SSE,15.0,18.4,N/A,,Clear,160,2013-10-10 20:35:00
3:55 PM,73.0,45.7,38,29.96,10.0,South,9.2,17.3,N/A,,Clear,170,2013-10-10 20:55:00
4:15 PM,73.4,45.3,37,29.95,10.0,South,12.7,18.4,N/A,,Clear,170,2013-10-10 21:15:00
4:35 PM,72.9,45.7,38,29.94,10.0,SSE,11.5,18.4,N/A,,Clear,160,2013-10-10 21:35:00
4:55 PM,72.0,46.6,40,29.95,10.0,SSE,9.2,-,N/A,,Clear,150,2013-10-10 21:55:00
5:15 PM,71.2,45.5,40,29.95,10.0,SSE,11.5,17.3,N/A,,Clear,150,2013-10-10 22:15:00
5:35 PM,70.3,45.7,41,29.95,10.0,SSE,12.7,17.3,N/A,,Clear,150,2013-10-10 22:35:00
5:55 PM,68.9,45.7,43,29.94,10.0,SSE,8.1,-,N/A,,Clear,150,2013-10-10 22:55:00
6:15 PM,67.5,45.7,46,29.94,10.0,SSE,9.2,-,N/A,,Clear,160,2013-10-10 23:15:00
6:35 PM,66.4,45.5,47,29.94,10.0,SSE,8.1,-,N/A,,Clear,150,2013-10-10 23:35:00
6:55 PM,65.5,45.9,49,29.94,10.0,SSE,8.1,-,N/A,,Clear,150,2013-10-10 23:55:00
7:15 PM,64.2,45.9,51,29.94,10.0,SE,5.8,-,N/A,,Clear,140,2013-10-11 00:15:00
7:35 PM,63.7,45.7,52,29.94,10.0,SE,6.9,-,N/A,,Clear,140,2013-10-11 00:35:00
7:55 PM,63.5,45.7,52,29.94,10.0,SSE,6.9,-,N/A,,Clear,150,2013-10-11 00:55:00
8:15 PM,63.1,45.5,53,29.95,10.0,SSE,8.1,-,N/A,,Clear,160,2013-10-11 01:15:00
8:35 PM,63.7,45.5,52,29.95,10.0,SSE,8.1,-,N/A,,Clear,150,2013-10-11 01:35:00
8:55 PM,63.7,45.5,52,29.94,10.0,SSE,8.1,-,N/A,,Clear,150,2013-10-11 01:55:00
9:15 PM,63.5,45.5,52,29.94,10.0,SSE,8.1,-,N/A,,Clear,150,2013-10-11 02:15:00
9:35 PM,63.5,45.7,52,29.94,10.0,SSE,9.2,-,N/A,,Clear,150,2013-10-11 02:35:00
9:55 PM,63.5,45.9,53,29.94,10.0,SSE,9.2,-,N/A,,Clear,150,2013-10-11 02:55:00
10:15 PM,63.1,46.0,54,29.95,10.0,SSE,9.2,-,N/A,,Clear,150,2013-10-11 03:15:00
10:35 PM,63.0,46.4,55,29.95,10.0,SSE,9.2,-,N/A,,Clear,160,2013-10-11 03:35:00
10:55 PM,62.4,46.4,56,29.95,10.0,SSE,9.2,-,N/A,,Clear,150,2013-10-11 03:55:00
11:15 PM,62.1,46.4,56,29.94,10.0,SE,6.9,-,N/A,,Clear,140,2013-10-11 04:15:00
11:35 PM,61.0,46.6,59,29.94,10.0,SE,5.8,-,N/A,,Clear,140,2013-10-11 04:35:00
11:55 PM,60.4,46.8,61,29.94,10.0,SSE,6.9,-,N/A,,Clear,150,2013-10-11 04:55:00